createdAt,value
2022-08-11T00:01:18.345Z,23.82
2022-08-11T00:03:51.875Z,23.80
2022-08-11T00:06:26.987Z,23.76
2022-08-11T00:08:57.806Z,23.71
2022-08-11T00:11:35.228Z,23.75
2022-08-11T00:14:19.784Z,23.77
2022-08-11T00:16:59.736Z,23.82
2022-08-11T00:20:11.914Z,23.77
2022-08-11T00:22:24.728Z,23.68
2022-08-11T00:25:00.013Z,23.58
2022-08-11T00:27:36.399Z,23.51
2022-08-11T00:30:07.175Z,23.47
2022-08-11T00:32:40.259Z,23.57
2022-08-11T00:35:55.335Z,23.57
2022-08-11T00:38:04.940Z,23.41
2022-08-11T00:40:40.650Z,23.45
2022-08-11T00:43:21.761Z,23.39
2022-08-11T00:46:12.564Z,23.36
2022-08-11T00:48:58.373Z,23.24
2022-08-11T00:52:04.236Z,23.23
2022-08-11T00:55:07.453Z,23.26
2022-08-11T00:58:11.903Z,23.16
2022-08-11T01:01:06.692Z,23.12
2022-08-11T01:04:01.003Z,22.89
2022-08-11T01:06:53.768Z,23.00
2022-08-11T01:09:49.012Z,22.87
2022-08-11T01:12:44.305Z,22.77
2022-08-11T01:16:00.466Z,22.80
2022-08-11T01:19:09.199Z,22.68
2022-08-11T01:22:11.754Z,22.68
2022-08-11T01:25:15.215Z,22.67
2022-08-11T01:28:33.403Z,22.57
2022-08-11T01:31:27.609Z,22.63
2022-08-11T01:34:30.819Z,22.49
2022-08-11T01:37:42.161Z,22.61
2022-08-11T01:40:36.147Z,22.52
2022-08-11T01:43:58.371Z,22.54
2022-08-11T01:46:32.393Z,22.58
2022-08-11T01:50:05.200Z,22.53
2022-08-11T01:52:10.081Z,22.54
2022-08-11T01:54:49.068Z,22.58
2022-08-11T01:57:35.276Z,22.67
2022-08-11T02:00:12.730Z,22.74
2022-08-11T02:02:55.036Z,22.76
2022-08-11T02:05:43.907Z,22.76
2022-08-11T02:08:33.271Z,22.76
2022-08-11T02:11:35.703Z,22.76
2022-08-11T02:14:25.858Z,22.75
2022-08-11T02:17:15.425Z,22.74
2022-08-11T02:20:24.713Z,22.83
2022-08-11T02:24:03.815Z,22.81
2022-08-11T02:26:19.630Z,22.82
2022-08-11T02:29:01.820Z,22.89
2022-08-11T02:32:24.343Z,22.83
2022-08-11T02:35:19.083Z,22.89
2022-08-11T02:38:00.092Z,22.87
2022-08-11T02:40:37.644Z,22.91
2022-08-11T02:43:20.391Z,22.78
2022-08-11T02:45:57.909Z,22.90
2022-08-11T02:49:00.517Z,22.92
2022-08-11T02:51:41.680Z,22.68
2022-08-11T02:54:22.076Z,22.75
2022-08-11T02:56:58.728Z,22.84
2022-08-11T02:59:51.482Z,22.92
2022-08-11T03:02:47.311Z,22.86
2022-08-11T03:05:26.991Z,22.85
2022-08-11T03:08:25.192Z,22.86
2022-08-11T03:11:30.728Z,22.81
2022-08-11T03:14:35.515Z,22.61
2022-08-11T03:17:17.777Z,22.59
2022-08-11T03:20:01.265Z,22.73
2022-08-11T03:22:38.105Z,22.70
2022-08-11T03:25:16.604Z,22.72
2022-08-11T03:27:53.694Z,22.58
2022-08-11T03:30:31.493Z,22.67
2022-08-11T03:33:36.896Z,22.72
2022-08-11T03:36:17.203Z,22.69
2022-08-11T03:39:00.042Z,22.67
2022-08-11T03:42:03.368Z,22.73
2022-08-11T03:44:49.507Z,22.75
2022-08-11T03:47:52.578Z,22.82
2022-08-11T03:50:44.249Z,22.80
2022-08-11T03:53:20.210Z,22.83
2022-08-11T03:56:24.181Z,22.89
2022-08-11T03:59:17.676Z,22.78
2022-08-11T04:02:22.152Z,22.73
2022-08-11T04:05:00.606Z,22.70
2022-08-11T04:08:13.228Z,22.83
2022-08-11T04:11:16.991Z,22.91
2022-08-11T04:14:48.944Z,22.93
2022-08-11T04:18:00.690Z,23.00
2022-08-11T04:20:53.829Z,22.85
2022-08-11T04:24:36.438Z,22.88
2022-08-11T04:27:21.285Z,22.81
2022-08-11T04:30:05.745Z,22.93
2022-08-11T04:33:34.432Z,22.80
2022-08-11T04:36:49.587Z,22.92
2022-08-11T04:39:35.260Z,22.96
2022-08-11T04:42:48.703Z,23.03
2022-08-11T04:45:53.123Z,23.11
2022-08-11T04:49:01.111Z,22.98
2022-08-11T04:52:37.540Z,23.07
2022-08-11T04:56:00.666Z,23.01
2022-08-11T04:59:07.500Z,23.14
2022-08-11T05:02:17.013Z,23.08
2022-08-11T05:05:16.362Z,23.17
2022-08-11T05:08:23.863Z,22.99
2022-08-11T05:11:08.679Z,23.05
2022-08-11T05:14:04.829Z,23.10
2022-08-11T05:17:01.109Z,23.19
2022-08-11T05:19:48.972Z,23.02
2022-08-11T05:22:38.837Z,22.96
2022-08-11T05:26:46.878Z,22.95
2022-08-11T05:28:48.933Z,22.91
2022-08-11T05:31:52.167Z,22.83
2022-08-11T05:34:44.036Z,22.90
2022-08-11T05:37:28.282Z,22.89
2022-08-11T05:40:20.149Z,22.96
2022-08-11T05:43:09.472Z,23.05
2022-08-11T05:46:04.055Z,23.08
2022-08-11T05:48:55.527Z,22.98
2022-08-11T05:51:55.318Z,22.81
2022-08-11T05:54:46.012Z,22.74
2022-08-11T05:57:48.807Z,22.80
2022-08-11T06:00:13.314Z,22.85
2022-08-11T06:02:45.554Z,22.87
2022-08-11T06:05:19.480Z,22.94
2022-08-11T06:07:50.989Z,23.25
2022-08-11T06:10:29.702Z,23.23
2022-08-11T06:13:02.003Z,23.46
2022-08-11T06:15:36.144Z,23.64
2022-08-11T06:18:06.471Z,23.76
2022-08-11T06:20:48.291Z,24.07
2022-08-11T06:23:23.292Z,24.19
2022-08-11T06:25:56.333Z,24.36
2022-08-11T06:28:32.673Z,24.39
2022-08-11T06:31:04.771Z,24.44
2022-08-11T06:33:44.032Z,24.68
2022-08-11T06:36:18.329Z,24.89
2022-08-11T06:39:02.409Z,24.73
2022-08-11T06:41:35.544Z,24.81
2022-08-11T06:44:17.255Z,24.88
2022-08-11T06:46:50.988Z,25.04
2022-08-11T06:49:39.588Z,25.27
2022-08-11T06:52:35.223Z,25.33
2022-08-11T06:55:57.917Z,25.21
2022-08-11T06:58:20.793Z,25.39
2022-08-11T07:00:58.400Z,25.44
2022-08-11T07:03:38.253Z,25.45
2022-08-11T07:06:23.316Z,25.34
2022-08-11T07:09:53.214Z,25.42
2022-08-11T07:12:58.697Z,25.58
2022-08-11T07:16:11.203Z,25.74
2022-08-11T07:18:55.131Z,25.78
2022-08-11T07:22:02.821Z,26.05
2022-08-11T07:24:58.776Z,25.89
2022-08-11T07:28:02.431Z,26.04
2022-08-11T07:30:36.024Z,26.20
2022-08-11T07:33:08.542Z,26.22
2022-08-11T07:35:43.910Z,26.26
2022-08-11T07:38:22.853Z,26.04
2022-08-11T07:41:00.246Z,26.02
2022-08-11T07:43:30.373Z,25.92
2022-08-11T07:46:18.302Z,25.85
2022-08-11T07:49:05.465Z,25.60
2022-08-11T07:51:56.947Z,25.59
2022-08-11T07:54:28.080Z,25.64
2022-08-11T07:57:58.494Z,25.67
2022-08-11T08:00:32.037Z,25.89
2022-08-11T08:03:22.819Z,26.01
2022-08-11T08:06:28.671Z,26.01
2022-08-11T08:09:19.899Z,26.16
2022-08-11T08:12:08.217Z,26.28
2022-08-11T08:14:57.652Z,26.41
2022-08-11T08:18:20.826Z,26.45
2022-08-11T08:20:39.960Z,26.48
2022-08-11T08:23:11.027Z,26.50
2022-08-11T08:25:42.427Z,26.27
2022-08-11T08:28:15.999Z,26.60
2022-08-11T08:30:51.012Z,26.72
2022-08-11T08:33:23.421Z,26.74
2022-08-11T08:36:11.907Z,26.79
2022-08-11T08:38:43.221Z,26.86
2022-08-11T08:41:16.415Z,26.97
2022-08-11T08:43:51.945Z,26.95
2022-08-11T08:46:37.968Z,27.12
2022-08-11T08:49:11.110Z,27.07
2022-08-11T08:51:58.759Z,27.19
2022-08-11T08:54:37.133Z,27.17
2022-08-11T08:57:09.208Z,27.26
2022-08-11T08:59:49.091Z,27.08
2022-08-11T09:02:33.912Z,27.18
2022-08-11T09:05:06.272Z,27.41
2022-08-11T09:07:39.333Z,27.42
2022-08-11T09:10:11.011Z,27.33
2022-08-11T09:12:43.474Z,27.38
2022-08-11T09:15:19.677Z,27.36
2022-08-11T09:18:03.778Z,27.48
2022-08-11T09:20:36.402Z,27.56
2022-08-11T09:26:34.323Z,27.58
2022-08-11T09:29:05.800Z,27.60
2022-08-11T09:31:39.594Z,27.47
2022-08-11T09:34:15.153Z,27.26
2022-08-11T09:37:03.846Z,27.65
2022-08-11T09:39:55.706Z,27.78
2022-08-11T09:42:47.481Z,27.87
2022-08-11T09:45:17.432Z,27.74
2022-08-11T09:47:48.272Z,27.82
2022-08-11T09:50:20.169Z,27.98
2022-08-11T09:53:35.212Z,28.02
2022-08-11T09:55:43.124Z,28.12
2022-08-11T09:58:35.166Z,27.92
2022-08-11T10:01:08.024Z,28.06
2022-08-11T10:03:42.678Z,28.08
2022-08-11T10:06:34.412Z,28.18
2022-08-11T10:09:07.384Z,28.10
2022-08-11T10:11:38.731Z,28.05
2022-08-11T10:14:34.620Z,28.21
2022-08-11T10:17:09.162Z,28.31
2022-08-11T10:19:40.274Z,28.31
2022-08-11T10:22:29.241Z,28.35
2022-08-11T10:25:21.344Z,28.44
2022-08-11T10:28:28.530Z,28.57
2022-08-11T10:31:06.716Z,28.59
2022-08-11T10:33:59.790Z,28.57
2022-08-11T10:36:31.439Z,28.50
2022-08-11T10:39:06.286Z,28.61
2022-08-11T10:42:06.902Z,28.72
2022-08-11T10:44:42.568Z,28.73
2022-08-11T10:47:32.084Z,28.68
2022-08-11T10:50:20.954Z,28.69
2022-08-11T10:53:09.674Z,28.69
2022-08-11T10:56:02.153Z,28.85
2022-08-11T10:58:49.289Z,28.82
2022-08-11T11:01:24.863Z,28.85
2022-08-11T11:03:58.996Z,28.98
2022-08-11T11:06:34.671Z,28.94
2022-08-11T11:09:09.804Z,29.07
2022-08-11T11:12:06.397Z,28.95
2022-08-11T11:14:59.163Z,28.82
2022-08-11T11:17:49.153Z,29.03
2022-08-11T11:20:37.220Z,29.05
2022-08-11T11:23:13.645Z,29.09
2022-08-11T11:26:10.196Z,29.30
2022-08-11T11:29:04.281Z,29.33
2022-08-11T11:31:47.041Z,29.18
2022-08-11T11:34:33.324Z,29.00
2022-08-11T11:37:04.979Z,28.97
2022-08-11T11:39:37.318Z,29.08
2022-08-11T11:42:10.500Z,29.00
2022-08-11T11:44:45.804Z,29.11
2022-08-11T11:47:21.708Z,29.26
2022-08-11T11:49:53.181Z,29.27
2022-08-11T11:52:24.781Z,29.09
2022-08-11T11:54:58.472Z,29.13
2022-08-11T11:57:58.752Z,29.12
2022-08-11T12:00:48.742Z,29.05
2022-08-11T12:03:21.024Z,28.87
2022-08-11T12:05:52.839Z,28.81
2022-08-11T12:08:27.766Z,28.80
2022-08-11T12:11:15.697Z,28.85
2022-08-11T12:13:50.268Z,28.93
2022-08-11T12:16:34.295Z,28.92
2022-08-11T12:19:10.442Z,28.91
2022-08-11T12:22:03.089Z,28.97
2022-08-11T12:27:59.087Z,29.32
2022-08-11T12:30:29.327Z,29.40
2022-08-11T12:33:00.850Z,29.35
2022-08-11T12:35:31.624Z,29.40
2022-08-11T12:38:08.002Z,29.20
2022-08-11T12:44:06.968Z,28.96
2022-08-11T12:46:38.836Z,28.99
2022-08-11T12:49:31.080Z,29.09
2022-08-11T12:52:15.023Z,29.33
2022-08-11T12:54:52.803Z,29.21
2022-08-11T12:57:47.609Z,29.19
2022-08-11T13:00:36.886Z,29.09
2022-08-11T13:03:27.210Z,29.27
2022-08-11T13:06:00.915Z,29.34
2022-08-11T13:08:35.551Z,29.33
2022-08-11T13:11:23.866Z,29.35
2022-08-11T13:13:57.923Z,29.35
2022-08-11T13:16:31.836Z,29.37
2022-08-11T13:19:02.997Z,29.36
2022-08-11T13:21:34.536Z,29.22
2022-08-11T13:24:05.294Z,29.22
2022-08-11T13:26:48.737Z,29.26
2022-08-11T13:29:22.834Z,29.31
2022-08-11T13:31:55.032Z,29.41
2022-08-11T13:34:27.375Z,29.35
2022-08-11T13:37:02.321Z,29.40
2022-08-11T13:39:34.833Z,29.42
2022-08-11T13:42:06.948Z,29.47
2022-08-11T13:44:39.563Z,29.56
2022-08-11T13:47:13.199Z,29.62
2022-08-11T13:49:45.043Z,29.68
2022-08-11T13:52:17.722Z,29.62
2022-08-11T13:54:49.345Z,29.39
2022-08-11T13:58:06.375Z,29.45
2022-08-11T14:00:13.147Z,29.48
2022-08-11T14:02:58.863Z,29.49
2022-08-11T14:05:32.743Z,29.44
2022-08-11T14:08:09.795Z,29.52
2022-08-11T14:12:21.589Z,29.43
2022-08-11T14:14:14.842Z,29.27
2022-08-11T14:16:46.769Z,29.22
2022-08-11T14:19:18.555Z,29.12
2022-08-11T14:22:08.708Z,29.09
2022-08-11T14:24:42.649Z,28.82
2022-08-11T14:28:32.556Z,28.90
2022-08-11T14:30:26.635Z,29.03
2022-08-11T14:32:59.827Z,29.06
2022-08-11T14:35:30.243Z,29.18
2022-08-11T14:38:01.635Z,29.21
2022-08-11T14:40:54.474Z,29.27
2022-08-11T14:44:10.441Z,29.23
2022-08-11T14:47:02.992Z,29.24
2022-08-11T14:49:34.914Z,29.21
2022-08-11T14:52:08.548Z,29.23
2022-08-11T14:54:56.178Z,29.21
2022-08-11T14:57:54.305Z,29.16
2022-08-11T15:00:19.233Z,29.12
2022-08-11T15:03:10.457Z,29.15
2022-08-11T15:05:56.134Z,28.98
2022-08-11T15:08:47.656Z,29.03
2022-08-11T15:11:37.326Z,29.03
2022-08-11T15:14:11.078Z,28.95
2022-08-11T15:17:01.039Z,28.97
2022-08-11T15:19:40.583Z,28.92
2022-08-11T15:22:30.242Z,28.98
2022-08-11T15:25:01.052Z,28.94
2022-08-11T15:27:49.850Z,28.88
2022-08-11T15:30:39.798Z,28.85
2022-08-11T15:33:30.181Z,28.83
2022-08-11T15:36:21.750Z,28.80
2022-08-11T15:38:56.489Z,28.81
2022-08-11T15:42:07.207Z,28.83
2022-08-11T15:45:04.088Z,28.75
2022-08-11T15:47:43.735Z,28.77
2022-08-11T15:50:19.110Z,28.84
2022-08-11T15:52:54.565Z,28.73
2022-08-11T15:55:26.490Z,28.69
2022-08-11T15:58:15.498Z,28.63
2022-08-11T16:01:09.106Z,28.49
2022-08-11T16:04:09.072Z,28.51
2022-08-11T16:06:47.735Z,28.48
2022-08-11T16:09:23.952Z,28.12
2022-08-11T16:11:57.712Z,28.36
2022-08-11T16:14:46.244Z,28.34
2022-08-11T16:17:19.762Z,28.25
2022-08-11T16:19:52.828Z,28.20
2022-08-11T16:22:34.428Z,28.16
2022-08-11T16:27:02.910Z,28.10
2022-08-11T16:27:59.599Z,27.95
2022-08-11T16:30:32.545Z,27.96
2022-08-11T16:33:49.110Z,28.00
2022-08-11T16:36:25.287Z,27.96
2022-08-11T16:38:56.252Z,27.93
2022-08-11T16:41:47.789Z,27.88
2022-08-11T16:44:38.309Z,27.84
2022-08-11T16:47:11.757Z,27.79
2022-08-11T16:49:52.707Z,27.80
2022-08-11T16:52:25.728Z,27.74
2022-08-11T16:54:56.106Z,27.73
2022-08-11T16:57:45.478Z,27.72
2022-08-11T17:00:18.686Z,27.66
2022-08-11T17:03:09.562Z,27.62
2022-08-11T17:06:00.290Z,27.59
2022-08-11T17:08:57.397Z,27.42
2022-08-11T17:11:47.803Z,27.47
2022-08-11T17:14:35.563Z,27.41
2022-08-11T17:17:13.309Z,27.40
2022-08-11T17:20:40.444Z,27.37
2022-08-11T17:23:00.577Z,27.31
2022-08-11T17:26:03.610Z,27.27
2022-08-11T17:28:26.090Z,27.20
2022-08-11T17:31:29.156Z,27.17
2022-08-11T17:34:17.519Z,27.15
2022-08-11T17:36:51.484Z,27.09
2022-08-11T17:39:24.639Z,27.04
2022-08-11T17:42:14.169Z,27.01
2022-08-11T17:45:03.591Z,26.99
2022-08-11T17:47:52.953Z,26.97
2022-08-11T17:50:24.494Z,26.93
2022-08-11T17:53:12.653Z,26.88
2022-08-11T17:56:01.360Z,26.85
2022-08-11T17:58:51.058Z,26.82
2022-08-11T18:01:22.797Z,26.74
2022-08-11T18:03:58.087Z,26.80
2022-08-11T18:06:34.709Z,26.79
2022-08-11T18:09:26.846Z,26.65
2022-08-11T18:12:15.377Z,26.65
2022-08-11T18:15:08.254Z,26.57
2022-08-11T18:17:56.460Z,26.42
2022-08-11T18:20:44.568Z,26.57
2022-08-11T18:23:45.997Z,26.49
2022-08-11T18:26:39.382Z,26.47
2022-08-11T18:29:28.209Z,26.42
2022-08-11T18:32:20.751Z,26.41
2022-08-11T18:35:13.078Z,26.43
2022-08-11T18:38:05.958Z,26.42
2022-08-11T18:40:59.163Z,26.36
2022-08-11T18:43:48.183Z,26.34
2022-08-11T18:46:37.390Z,26.34
2022-08-11T18:50:01.006Z,26.34
2022-08-11T18:52:41.436Z,26.32
2022-08-11T18:55:32.309Z,26.32
2022-08-11T18:58:23.630Z,26.30
2022-08-11T19:01:15.423Z,26.21
2022-08-11T19:04:10.971Z,26.23
2022-08-11T19:07:02.721Z,26.23
2022-08-11T19:09:52.178Z,26.22
2022-08-11T19:12:43.350Z,26.14
2022-08-11T19:15:31.891Z,26.16
2022-08-11T19:18:21.408Z,26.11
2022-08-11T19:21:11.413Z,26.14
2022-08-11T19:24:03.186Z,26.17
2022-08-11T19:26:52.497Z,26.09
2022-08-11T19:30:08.069Z,26.02
2022-08-11T19:32:51.545Z,26.05
2022-08-11T19:35:39.410Z,26.01
2022-08-11T19:38:27.610Z,26.01
2022-08-11T19:41:17.919Z,25.98
2022-08-11T19:44:29.013Z,26.02
2022-08-11T19:47:18.762Z,25.97
2022-08-11T19:50:08.337Z,25.99
2022-08-11T19:52:57.988Z,25.92
2022-08-11T19:55:46.654Z,25.86
2022-08-11T19:58:36.395Z,25.90
2022-08-11T20:01:24.692Z,25.86
2022-08-11T20:04:12.216Z,25.89
2022-08-11T20:07:00.417Z,25.90
2022-08-11T20:10:00.955Z,25.92
2022-08-11T20:12:56.273Z,25.89
2022-08-11T20:15:47.004Z,25.88
2022-08-11T20:18:37.382Z,25.86
2022-08-11T20:21:31.700Z,25.89
2022-08-11T20:24:21.774Z,25.89
2022-08-11T20:27:18.923Z,25.71
2022-08-11T20:30:12.444Z,25.84
2022-08-11T20:33:02.731Z,25.75
2022-08-11T20:35:51.924Z,25.63
2022-08-11T20:38:41.715Z,25.64
2022-08-11T20:41:31.127Z,25.64
2022-08-11T20:44:22.849Z,25.59
2022-08-11T20:47:13.396Z,25.69
2022-08-11T20:50:04.565Z,25.71
2022-08-11T20:52:52.153Z,25.68
2022-08-11T20:55:46.199Z,25.65
2022-08-11T20:59:13.810Z,25.64
2022-08-11T21:01:54.109Z,25.68
2022-08-11T21:04:54.121Z,25.65
2022-08-11T21:07:55.191Z,25.59
2022-08-11T21:10:46.815Z,25.47
2022-08-11T21:13:36.900Z,25.53
2022-08-11T21:16:27.722Z,25.54
2022-08-11T21:20:00.330Z,25.57
2022-08-11T21:22:36.392Z,25.54
2022-08-11T21:25:29.975Z,25.54
2022-08-11T21:28:21.048Z,25.46
2022-08-11T21:31:08.909Z,25.39
2022-08-11T21:33:57.544Z,25.46
2022-08-11T21:36:46.724Z,25.45
2022-08-11T21:39:38.198Z,25.50
2022-08-11T21:42:29.200Z,25.48
2022-08-11T21:45:18.313Z,25.45
2022-08-11T21:48:07.015Z,25.41
2022-08-11T21:50:54.270Z,25.40
2022-08-11T21:53:42.639Z,25.39
2022-08-11T21:56:32.108Z,25.37
2022-08-11T21:59:22.326Z,25.34
2022-08-11T22:02:12.748Z,25.30
2022-08-11T22:05:01.485Z,25.25
2022-08-11T22:07:49.962Z,25.17
2022-08-11T22:10:42.213Z,25.10
2022-08-11T22:13:31.509Z,25.09
2022-08-11T22:16:21.011Z,25.02
2022-08-11T22:19:09.847Z,25.00
2022-08-11T22:22:04.253Z,24.97
2022-08-11T22:24:56.032Z,25.03
2022-08-11T22:27:44.839Z,25.03
2022-08-11T22:30:32.678Z,24.85
2022-08-11T22:33:26.985Z,24.64
2022-08-11T22:36:17.298Z,24.56
2022-08-11T22:39:05.989Z,24.60
2022-08-11T22:41:54.009Z,24.44
2022-08-11T22:44:41.396Z,24.51
2022-08-11T22:47:40.358Z,24.58
2022-08-11T22:50:31.096Z,24.41
2022-08-11T22:53:20.299Z,24.33
2022-08-11T22:56:32.071Z,24.33
2022-08-11T22:59:20.769Z,24.38
2022-08-11T23:02:09.148Z,24.26
2022-08-11T23:04:57.483Z,24.27
2022-08-11T23:07:50.903Z,24.16
2022-08-11T23:10:41.599Z,24.04
2022-08-11T23:13:29.809Z,24.09
2022-08-11T23:16:19.635Z,23.94
2022-08-11T23:19:07.939Z,23.96
2022-08-11T23:21:56.263Z,23.96
2022-08-11T23:24:45.007Z,23.97
2022-08-11T23:27:33.287Z,23.98
2022-08-11T23:30:20.632Z,23.97
2022-08-11T23:33:15.716Z,23.79
2022-08-11T23:36:08.347Z,23.63
2022-08-11T23:38:56.167Z,23.86
2022-08-11T23:41:44.989Z,23.79
2022-08-11T23:44:32.224Z,23.46
2022-08-11T23:47:21.507Z,23.75
2022-08-11T23:50:09.777Z,23.68
2022-08-11T23:52:56.976Z,23.77
2022-08-11T23:55:44.783Z,23.69
2022-08-11T23:58:34.201Z,23.64
